Time;durP1;ratioP1;P1;durP2;ratioP2;P2;SDS_P1;SDS_P2;PMS_P1;PMS_P2;Temp;Humidity;BMP_temperature;BMP_pressure;BME280_temperature;BME280_humidity;BME280_pressure;Samples;Min_cycle;Max_cycle;Signal;HPM_P1;HPM_P2
2022/05/08 00:00:49;;;;;;;11.13;9.18;;;;;;;14.21;100.00;100664.09;5055360;28;20041;-70
2022/05/08 00:03:17;;;;;;;11.98;8.82;;;;;;;14.07;100.00;100662.34;5055056;28;20052;-70
2022/05/08 00:05:47;;;;;;;10.45;8.88;;;;;;;14.16;100.00;100652.81;5073237;28;20069;-70
2022/05/08 00:08:15;;;;;;;11.20;8.40;;;;;;;14.14;100.00;100655.59;5055083;28;20127;-71
2022/05/08 00:10:43;;;;;;;12.45;9.38;;;;;;;14.07;100.00;100659.66;5072834;28;20047;-70
2022/05/08 00:13:11;;;;;;;10.40;8.63;;;;;;;14.07;100.00;100646.25;5072795;28;20041;-72
2022/05/08 00:15:40;;;;;;;11.25;8.95;;;;;;;14.04;100.00;100646.47;5055073;28;20170;-69
2022/05/08 00:18:08;;;;;;;10.90;7.93;;;;;;;14.00;100.00;100637.78;5073041;28;20063;-68
2022/05/08 00:20:36;;;;;;;11.00;8.55;;;;;;;13.97;100.00;100639.78;5073083;28;20120;-68
2022/05/08 00:23:06;;;;;;;10.18;8.18;;;;;;;13.98;100.00;100642.38;5054985;28;20054;-68
2022/05/08 00:25:34;;;;;;;10.70;8.50;;;;;;;14.00;100.00;100643.16;5072813;28;20059;-70
2022/05/08 00:28:05;;;;;;;11.45;8.38;;;;;;;13.89;100.00;100636.78;5073054;28;20127;-69
2022/05/08 00:30:33;;;;;;;10.48;7.72;;;;;;;14.02;100.00;100637.66;5072844;28;20072;-68
2022/05/08 00:33:01;;;;;;;10.43;8.32;;;;;;;14.10;100.00;100632.66;5072847;28;20041;-68
2022/05/08 00:35:30;;;;;;;10.93;8.23;;;;;;;13.82;100.00;100630.97;5054386;28;20045;-69
2022/05/08 00:37:58;;;;;;;11.32;9.07;;;;;;;14.02;100.00;100629.63;5072940;28;20183;-68
2022/05/08 00:40:28;;;;;;;10.73;8.32;;;;;;;14.12;100.00;100628.03;5072640;28;20052;-68
2022/05/08 00:42:58;;;;;;;11.05;8.15;;;;;;;14.15;100.00;100627.81;5072931;28;20048;-68
2022/05/08 00:45:29;;;;;;;12.90;8.25;;;;;;;14.17;100.00;100631.22;5054508;28;20052;-69
2022/05/08 00:47:58;;;;;;;13.85;8.20;;;;;;;14.20;100.00;100631.03;5073118;28;20434;-69
2022/05/08 00:50:27;;;;;;;11.65;8.00;;;;;;;14.20;100.00;100633.72;5076158;28;20044;-69
2022/05/08 00:52:55;;;;;;;11.57;8.60;;;;;;;14.14;100.00;100627.91;5076453;28;20040;-69
2022/05/08 00:55:23;;;;;;;9.85;8.25;;;;;;;14.17;100.00;100633.91;5058220;28;20140;-69
2022/05/08 00:57:53;;;;;;;13.68;9.38;;;;;;;14.06;100.00;100625.75;5076428;28;20036;-68
2022/05/08 01:00:22;;;;;;;12.00;9.40;;;;;;;13.96;100.00;100624.66;5076165;28;20123;-68
2022/05/08 01:02:50;;;;;;;12.55;9.32;;;;;;;14.06;100.00;100627.59;5058715;28;20052;-68
2022/05/08 01:05:18;;;;;;;11.85;8.95;;;;;;;14.17;100.00;100627.69;5076101;28;20470;-69
2022/05/08 01:07:46;;;;;;;11.73;9.07;;;;;;;14.08;100.00;100626.50;5058315;28;20044;-69
2022/05/08 01:10:15;;;;;;;11.57;9.30;;;;;;;13.80;100.00;100619.50;5075735;28;20133;-75
2022/05/08 01:12:44;;;;;;;11.38;9.35;;;;;;;13.88;100.00;100621.66;5076090;28;20049;-69
2022/05/08 01:15:17;;;;;;;11.68;9.55;;;;;;;13.78;100.00;100617.88;5058172;28;20052;-68
2022/05/08 01:17:48;;;;;;;11.32;9.07;;;;;;;13.84;100.00;100622.84;5075924;28;20036;-69
2022/05/08 01:20:17;;;;;;;11.20;9.20;;;;;;;13.77;100.00;100618.84;5076159;28;20049;-69
2022/05/08 01:22:47;;;;;;;11.50;9.52;;;;;;;13.59;100.00;100621.78;5076002;28;20045;-69
2022/05/08 01:25:17;;;;;;;14.55;9.65;;;;;;;13.72;100.00;100616.47;5075412;28;20053;-69
2022/05/08 01:27:45;;;;;;;13.05;10.20;;;;;;;13.62;100.00;100618.06;5057653;28;20413;-69
2022/05/08 01:30:13;;;;;;;12.45;9.73;;;;;;;13.63;100.00;100623.31;5075926;28;20047;-69
2022/05/08 01:32:42;;;;;;;13.73;9.93;;;;;;;13.70;100.00;100621.06;5075483;28;20044;-69
2022/05/08 01:35:10;;;;;;;14.02;10.75;;;;;;;13.69;100.00;100628.25;5075738;28;20124;-69
2022/05/08 01:37:38;;;;;;;13.82;10.15;;;;;;;13.50;100.00;100624.22;5075224;28;20037;-69
2022/05/08 01:40:09;;;;;;;12.45;10.27;;;;;;;13.45;100.00;100616.50;5075720;28;20041;-69
2022/05/08 01:42:37;;;;;;;13.00;10.23;;;;;;;13.48;100.00;100618.09;5075287;28;20049;-70
2022/05/08 01:45:05;;;;;;;13.55;10.57;;;;;;;13.50;100.00;100622.41;5057631;28;20047;-70
2022/05/08 01:50:21;;;;;;;12.43;9.73;;;;;;;13.51;100.00;100618.78;5075184;28;20409;-70
2022/05/08 01:52:49;;;;;;;11.57;9.73;;;;;;;13.47;100.00;100622.59;5075408;28;20046;-70
2022/05/08 01:55:19;;;;;;;13.73;9.85;;;;;;;13.56;100.00;100622.00;5057247;28;20074;-75
2022/05/08 01:57:47;;;;;;;12.38;9.52;;;;;;;13.48;100.00;100615.44;5075364;28;20052;-70
2022/05/08 02:00:16;;;;;;;14.35;10.07;;;;;;;13.36;100.00;100627.81;5075084;28;20120;-70
2022/05/08 02:02:48;;;;;;;13.68;10.23;;;;;;;13.49;100.00;100619.81;5057465;28;20049;-70
2022/05/08 02:05:17;;;;;;;11.68;9.70;;;;;;;13.57;100.00;100617.50;5075344;28;20041;-70
2022/05/08 02:07:46;;;;;;;12.90;10.15;;;;;;;13.53;100.00;100616.84;5074889;28;20052;-70
2022/05/08 02:10:16;;;;;;;12.43;10.02;;;;;;;13.44;100.00;100612.97;5075166;28;20048;-70
2022/05/08 02:12:46;;;;;;;13.30;10.00;;;;;;;13.33;100.00;100615.50;5075207;28;20385;-70
2022/05/08 02:15:15;;;;;;;13.43;10.25;;;;;;;13.32;100.00;100620.97;5057157;28;20049;-70
2022/05/08 02:17:43;;;;;;;13.70;10.70;;;;;;;13.24;100.00;100615.25;5074887;28;20048;-69
2022/05/08 02:20:12;;;;;;;15.88;10.77;;;;;;;13.18;100.00;100616.44;5074972;28;20044;-69
2022/05/08 02:22:40;;;;;;;14.05;10.32;;;;;;;13.17;100.00;100614.75;5074630;28;20477;-68
2022/05/08 02:25:10;;;;;;;13.18;10.30;;;;;;;13.15;100.00;100608.63;5074715;28;20074;-69
2022/05/08 02:27:39;;;;;;;13.73;10.27;;;;;;;13.17;100.00;100615.59;5056615;28;20045;-69
2022/05/08 02:30:10;;;;;;;14.95;10.35;;;;;;;13.06;100.00;100611.91;5074445;28;20074;-68
2022/05/08 02:32:40;;;;;;;14.63;10.52;;;;;;;12.95;100.00;100611.75;5056645;28;20049;-69
2022/05/08 02:35:10;;;;;;;12.75;9.90;;;;;;;13.00;100.00;100606.94;5074259;28;20051;-68
2022/05/08 02:37:38;;;;;;;12.65;9.90;;;;;;;13.03;100.00;100618.31;5056039;28;20553;-69
2022/05/08 02:40:08;;;;;;;12.77;10.02;;;;;;;13.15;100.00;100620.19;5074563;28;20036;-69
2022/05/08 02:42:37;;;;;;;13.77;9.75;;;;;;;13.15;100.00;100622.03;5074320;28;20044;-68
2022/05/08 02:45:08;;;;;;;15.50;10.98;;;;;;;13.10;100.00;100622.31;5074506;28;20050;-69
2022/05/08 02:47:38;;;;;;;14.07;10.57;;;;;;;13.18;100.00;100625.34;5074219;28;20068;-68
2022/05/08 02:50:09;;;;;;;14.07;9.88;;;;;;;13.08;100.00;100621.56;5056464;28;20147;-68
2022/05/08 02:52:38;;;;;;;14.27;10.07;;;;;;;13.13;100.00;100622.13;5074052;28;20041;-68
2022/05/08 03:00:42;;;;;;;13.40;10.10;;;;;;;12.88;100.00;100624.66;5073997;28;20094;-69
2022/05/08 03:03:13;;;;;;;13.88;9.63;;;;;;;12.89;100.00;100626.38;5073868;28;20041;-68
2022/05/08 03:05:42;;;;;;;13.20;10.05;;;;;;;12.87;100.00;100628.28;5073607;28;20119;-70
2022/05/08 03:08:14;;;;;;;13.98;10.82;;;;;;;12.87;100.00;100629.16;5074042;28;20056;-70
2022/05/08 03:13:29;;;;;;;11.55;9.60;;;;;;;12.87;100.00;100628.28;5073701;28;20134;-71
2022/05/08 03:15:57;;;;;;;13.88;10.32;;;;;;;13.07;100.00;100624.34;5073949;28;20469;-71
2022/05/08 03:18:27;;;;;;;13.98;10.35;;;;;;;13.08;100.00;100632.25;5055618;28;20058;-71
2022/05/08 03:20:55;;;;;;;14.90;10.32;;;;;;;13.06;100.00;100623.47;5073896;28;20037;-71
2022/05/08 03:23:23;;;;;;;14.20;9.90;;;;;;;13.10;100.00;100629.47;5073181;28;20044;-75
2022/05/08 03:25:54;;;;;;;12.85;10.15;;;;;;;13.12;100.00;100628.44;5073568;28;20044;-71
2022/05/08 03:28:22;;;;;;;14.98;10.40;;;;;;;13.02;100.00;100626.44;5073754;28;20036;-70
2022/05/08 03:30:50;;;;;;;15.23;10.57;;;;;;;12.86;100.00;100632.78;5056031;28;20382;-71
2022/05/08 03:33:18;;;;;;;15.10;10.48;;;;;;;12.87;100.00;100644.34;5074022;28;20037;-70
2022/05/08 03:35:48;;;;;;;14.45;10.93;;;;;;;12.92;100.00;100646.72;5072971;28;20072;-70
2022/05/08 03:38:18;;;;;;;15.25;11.63;;;;;;;12.89;100.00;100642.44;5073309;28;20051;-70
2022/05/08 03:40:46;;;;;;;15.52;11.13;;;;;;;12.85;100.00;100654.31;5073527;28;20052;-69
2022/05/08 03:43:14;;;;;;;14.70;11.20;;;;;;;12.92;100.00;100654.75;5073492;28;20044;-69
2022/05/08 03:45:43;;;;;;;15.93;11.07;;;;;;;12.98;100.00;100654.38;5072915;28;20036;-69
2022/05/08 03:48:11;;;;;;;13.07;10.55;;;;;;;13.00;100.00;100660.50;5073434;28;20036;-69
2022/05/08 03:50:39;;;;;;;14.98;10.65;;;;;;;13.10;100.00;100654.44;5073036;28;20045;-69
2022/05/08 03:53:12;;;;;;;14.82;10.45;;;;;;;13.17;100.00;100658.47;5073391;28;20374;-71
2022/05/08 03:55:40;;;;;;;14.85;10.57;;;;;;;13.40;100.00;100665.03;5055043;28;20045;-70
2022/05/08 03:58:08;;;;;;;12.15;9.90;;;;;;;13.63;100.00;100666.22;5073273;28;20053;-70
2022/05/08 04:00:36;;;;;;;12.95;10.27;;;;;;;13.60;100.00;100670.88;5055072;28;20160;-69
2022/05/08 04:03:05;;;;;;;13.48;10.25;;;;;;;13.58;100.00;100672.81;5073331;28;20049;-71
2022/05/08 04:05:33;;;;;;;11.82;10.05;;;;;;;13.63;100.00;100673.38;5072973;28;20068;-71
2022/05/08 04:08:01;;;;;;;13.80;10.75;;;;;;;13.66;100.00;100678.53;5055119;28;20048;-70
2022/05/08 04:10:32;;;;;;;12.32;9.75;;;;;;;13.77;100.00;100678.69;5072629;28;20075;-71
2022/05/08 04:13:00;;;;;;;14.43;10.48;;;;;;;14.01;100.00;100685.09;5073261;28;20094;-69
2022/05/08 04:18:14;;;;;;;13.50;9.90;;;;;;;14.23;100.00;100684.47;5055177;28;20552;-69
2022/05/08 04:20:42;;;;;;;13.15;9.65;;;;;;;14.85;100.00;100683.75;5054570;28;20048;-69
2022/05/08 04:25:57;;;;;;;12.02;9.45;;;;;;;15.50;100.00;100690.72;5059113;28;20061;-69
2022/05/08 04:28:25;;;;;;;12.25;9.65;;;;;;;15.46;100.00;100690.09;5077060;28;20044;-69
2022/05/08 04:30:53;;;;;;;10.82;9.13;;;;;;;15.53;100.00;100683.28;5077092;28;20101;-70
2022/05/08 04:33:22;;;;;;;10.32;8.52;;;;;;;16.21;100.00;100689.84;5077016;28;20090;-69
2022/05/08 04:35:51;;;;;;;11.15;8.63;;;;;;;16.30;100.00;100681.06;5076640;28;20066;-69
2022/05/08 04:38:21;;;;;;;10.25;8.10;;;;;;;16.57;100.00;100692.38;5076776;28;20041;-69
2022/05/08 04:40:49;;;;;;;12.75;8.45;;;;;;;16.48;100.00;100676.94;5058570;28;20075;-69
2022/05/08 04:43:18;;;;;;;8.80;7.60;;;;;;;16.96;100.00;100681.31;5076921;28;20495;-69
2022/05/08 04:45:46;;;;;;;16.13;8.27;;;;;;;17.46;100.00;100683.44;5058575;28;20048;-70
2022/05/08 04:48:14;;;;;;;10.57;8.20;;;;;;;17.24;100.00;100683.50;5076448;28;20048;-70
2022/05/08 04:50:43;;;;;;;10.40;7.63;;;;;;;17.38;100.00;100693.19;5088639;28;20453;-70
2022/05/08 04:53:11;;;;;;;10.40;8.00;;;;;;;17.51;100.00;100685.78;5078735;28;20055;-70
2022/05/08 04:55:39;;;;;;;10.63;8.07;;;;;;;16.93;100.00;100695.88;5096470;28;20050;-70
2022/05/08 04:58:08;;;;;;;10.55;8.63;;;;;;;16.66;100.00;100692.66;5095126;28;20056;-70
2022/05/08 05:00:37;;;;;;;11.20;8.60;;;;;;;16.79;100.00;100691.63;5094909;28;20567;-70
2022/05/08 05:03:05;;;;;;;9.57;8.18;;;;;;;16.70;100.00;100703.13;5096700;28;20048;-70
2022/05/08 05:05:34;;;;;;;10.60;8.60;;;;;;;16.72;100.00;100700.28;5096106;28;20040;-70
2022/05/08 05:08:02;;;;;;;9.65;8.05;;;;;;;16.73;100.00;100705.56;5096509;28;20047;-70
2022/05/08 05:10:31;;;;;;;12.90;8.80;;;;;;;16.90;100.00;100706.06;5078049;28;20143;-78
2022/05/08 05:12:59;;;;;;;9.43;8.43;;;;;;;17.28;100.00;100705.69;5078246;28;20071;-70
2022/05/08 05:15:29;;;;;;;9.93;7.95;;;;;;;17.94;100.00;100711.91;5096385;28;20044;-66
2022/05/08 05:18:01;;;;;;;9.32;7.68;;;;;;;18.14;100.00;100704.84;5078361;28;20048;-66
2022/05/08 05:20:30;;;;;;;10.97;7.27;;;;;;;18.44;100.00;100713.06;5096109;28;20048;-66
2022/05/08 05:23:04;;;;;;;9.20;7.05;;;;;;;19.02;100.00;100720.69;5096798;28;20281;-70
2022/05/08 05:25:32;;;;;;;10.13;7.25;;;;;;;19.07;100.00;100718.41;5095500;28;20059;-74
2022/05/08 05:28:01;;;;;;;8.40;6.95;;;;;;;19.58;100.00;100714.75;5091061;28;20049;-68
2022/05/08 05:30:35;;;;;;;11.60;7.40;;;;;;;19.57;100.00;100716.59;5091015;28;20476;-68
2022/05/08 05:33:05;;;;;;;7.68;6.35;;;;;;;19.58;100.00;100720.16;5096260;28;20388;-68
2022/05/08 05:35:33;;;;;;;7.32;6.15;;;;;;;19.68;100.00;100705.66;5094825;28;20040;-70
2022/05/08 05:38:01;;;;;;;7.07;5.97;;;;;;;19.66;100.00;100709.50;5096024;28;20051;-68
2022/05/08 05:40:30;;;;;;;7.90;6.22;;;;;;;20.21;100.00;100707.13;5094594;28;20044;-68
2022/05/08 05:42:58;;;;;;;6.88;5.80;;;;;;;20.09;100.00;100713.72;5095932;28;20073;-69
2022/05/08 05:45:27;;;;;;;9.27;6.30;;;;;;;20.30;100.00;100709.00;5095506;28;20123;-69
2022/05/08 05:47:54;;;;;;;8.90;6.10;;;;;;;20.39;100.00;100716.25;5095329;28;20067;-69
2022/05/08 05:50:25;;;;;;;7.70;6.03;;;;;;;20.30;100.00;100717.97;5094417;28;20054;-69
2022/05/08 05:52:54;;;;;;;7.13;5.75;;;;;;;20.90;100.00;100715.03;5095223;28;20060;-69
2022/05/08 05:55:22;;;;;;;8.57;6.20;;;;;;;21.05;100.00;100713.56;5095635;28;20040;-70
2022/05/08 05:57:50;;;;;;;9.00;6.20;;;;;;;21.31;100.00;100710.19;5094124;28;20412;-68
2022/05/08 06:00:20;;;;;;;8.50;6.38;;;;;;;21.05;100.00;100713.56;5094419;28;20500;-68
2022/05/08 06:02:49;;;;;;;7.53;6.15;;;;;;;21.14;100.00;100707.25;5095302;28;20040;-70
2022/05/08 06:05:17;;;;;;;7.28;5.93;;;;;;;21.59;100.00;100713.75;5094152;28;20079;-70
2022/05/08 06:07:49;;;;;;;9.55;6.15;;;;;;;21.88;100.00;100705.41;5093975;28;20081;-71
2022/05/08 06:10:17;;;;;;;7.38;5.70;;;;;;;21.57;100.00;100708.47;5094012;28;20556;-70
2022/05/08 06:12:45;;;;;;;7.63;5.97;;;;;;;21.54;100.00;100706.06;5095057;28;20222;-69
2022/05/08 06:15:13;;;;;;;8.65;6.07;;;;;;;21.28;100.00;100702.34;5093878;28;20105;-70
2022/05/08 06:17:43;;;;;;;8.68;6.05;;;;;;;21.76;100.00;100706.66;5093697;28;20048;-71
2022/05/08 06:20:11;;;;;;;87.43;44.50;;;;;;;22.35;100.00;100702.47;5094794;28;20121;-69
2022/05/08 06:22:40;;;;;;;9.75;7.30;;;;;;;22.01;100.00;100705.91;5093668;28;20098;-69
2022/05/08 06:25:12;;;;;;;7.68;6.18;;;;;;;21.69;100.00;100711.81;5093757;28;20441;-70
2022/05/08 06:27:40;;;;;;;8.93;6.50;;;;;;;21.92;100.00;100712.25;5095019;28;20097;-70
2022/05/08 06:30:10;;;;;;;8.82;6.57;;;;;;;22.34;100.00;100703.50;5093926;28;20134;-70
2022/05/08 06:32:38;;;;;;;7.85;6.00;;;;;;;22.64;81.42;100713.91;5094439;28;20062;-68
2022/05/08 06:35:26;;;;;;;7.95;6.00;;;;;;;23.21;73.67;100711.56;5094902;28;20040;-68
2022/05/08 06:37:55;;;;;;;9.15;5.97;;;;;;;23.70;69.04;100706.34;5093298;28;20048;-69
2022/05/08 06:40:25;;;;;;;7.45;5.75;;;;;;;23.33;68.15;100714.84;5093579;28;20048;-68
2022/05/08 06:42:53;;;;;;;12.48;6.28;;;;;;;22.81;71.25;100718.47;5096790;28;20116;-70
2022/05/08 06:45:24;;;;;;;7.95;6.22;;;;;;;23.21;68.63;100711.56;5092864;28;20049;-70
2022/05/08 06:47:53;;;;;;;7.18;6.25;;;;;;;23.57;66.39;100716.81;5094166;28;20044;-77
2022/05/08 06:50:22;;;;;;;8.60;5.97;;;;;;;23.51;63.54;100712.88;5082262;28;20123;-73
2022/05/08 06:52:50;;;;;;;8.38;6.07;;;;;;;23.32;64.36;100718.59;5063812;28;20126;-74
2022/05/08 06:55:20;;;;;;;8.20;5.80;;;;;;;23.31;62.51;100706.84;5064471;28;20110;-74
2022/05/08 06:57:49;;;;;;;11.55;5.88;;;;;;;23.08;61.95;100705.72;5074055;28;20065;-80
2022/05/08 07:03:05;;;;;;;8.45;5.90;;;;;;;23.13;61.38;100711.53;5072779;28;20127;-76
2022/05/08 07:05:36;;;;;;;8.07;5.88;;;;;;;22.78;60.77;100713.34;5072853;28;20064;-70
2022/05/08 07:08:05;;;;;;;8.85;6.20;;;;;;;22.90;60.43;100718.56;5073820;28;20045;-70
2022/05/08 07:10:33;;;;;;;10.25;6.47;;;;;;;22.72;60.86;100705.81;5073989;28;20047;-70
2022/05/08 07:13:03;;;;;;;8.52;6.30;;;;;;;22.35;62.32;100710.63;5072386;28;20052;-68
2022/05/08 07:15:31;;;;;;;7.75;6.00;;;;;;;22.00;61.91;100715.03;5073501;28;20131;-70
2022/05/08 07:18:22;;;;;;;23.98;14.68;;;;;;;22.18;62.20;100713.19;5072599;28;20044;-68
2022/05/08 07:20:50;;;;;;;8.00;5.75;;;;;;;22.04;61.84;100711.00;5073608;28;20053;-71
2022/05/08 07:23:19;;;;;;;6.60;5.88;;;;;;;22.48;60.91;100709.19;5072420;28;20056;-71
2022/05/08 07:25:47;;;;;;;7.57;6.05;;;;;;;22.43;61.31;100708.84;5072168;28;20057;-71
2022/05/08 07:28:17;;;;;;;8.95;6.90;;;;;;;22.27;60.59;100712.25;5073465;28;20037;-71
2022/05/08 07:30:45;;;;;;;7.85;6.05;;;;;;;22.62;60.63;100707.78;5072086;28;20485;-72
2022/05/08 07:33:16;;;;;;;9.35;5.85;;;;;;;22.74;58.29;100713.81;5072451;28;20501;-70
2022/05/08 07:38:30;;;;;;;7.85;5.95;;;;;;;22.66;58.01;100711.03;5073532;28;20559;-72
2022/05/08 07:41:01;;;;;;;7.63;5.80;;;;;;;22.63;57.35;100714.94;5091277;28;20119;-74
2022/05/08 07:43:31;;;;;;;7.60;5.85;;;;;;;22.73;56.93;100712.09;5093488;28;20556;-74
2022/05/08 07:46:00;;;;;;;8.25;5.97;;;;;;;22.59;56.97;100716.28;5093466;28;20089;-74
2022/05/08 07:48:29;;;;;;;12.10;6.13;;;;;;;22.55;58.30;100712.16;5075333;28;20044;-74
2022/05/08 07:50:59;;;;;;;10.10;6.40;;;;;;;22.50;57.67;100717.22;5093193;28;20525;-74
2022/05/08 07:53:28;;;;;;;8.07;6.20;;;;;;;22.59;57.74;100710.84;5075566;28;20115;-75
2022/05/08 07:55:57;;;;;;;8.02;6.43;;;;;;;22.60;56.65;100711.69;5075137;28;20384;-77
2022/05/08 07:58:28;;;;;;;9.38;5.72;;;;;;;22.51;54.08;100708.06;5075149;28;20036;-75
2022/05/08 08:01:03;;;;;;;8.00;5.47;;;;;;;22.59;53.54;100709.97;5093353;28;20036;-74
2022/05/08 08:03:34;;;;;;;7.40;5.82;;;;;;;22.71;53.08;100715.00;5075462;28;20384;-75
2022/05/08 08:06:03;;;;;;;7.82;6.00;;;;;;;22.71;53.24;100719.56;5075062;28;20048;-75
2022/05/08 08:08:38;;;;;;;8.70;5.70;;;;;;;22.70;53.13;100721.44;5093279;28;20039;-72
2022/05/08 08:11:07;;;;;;;8.63;6.03;;;;;;;22.39;53.01;100710.19;5093131;28;20093;-70
2022/05/08 08:13:36;;;;;;;7.70;5.85;;;;;;;22.52;51.88;100709.75;5093455;28;20036;-86
2022/05/08 08:16:07;;;;;;;7.20;5.55;;;;;;;22.23;52.39;100710.88;5093145;28;20085;-77
2022/05/08 08:18:35;;;;;;;10.88;6.35;;;;;;;22.32;53.27;100727.25;5093396;28;20461;-75
2022/05/08 08:21:09;;;;;;;8.68;6.18;;;;;;;22.29;52.93;100720.25;5074823;28;20109;-74
2022/05/08 08:23:38;;;;;;;7.78;5.82;;;;;;;22.27;52.05;100717.69;5075197;28;20048;-74
2022/05/08 08:26:07;;;;;;;8.18;5.80;;;;;;;22.36;53.08;100720.47;5074756;28;20141;-74
2022/05/08 08:28:36;;;;;;;7.55;5.57;;;;;;;22.71;51.77;100725.88;5093000;28;20036;-70
2022/05/08 08:31:07;;;;;;;8.55;5.65;;;;;;;22.88;51.17;100726.03;5092686;28;20085;-71
2022/05/08 08:33:38;;;;;;;10.35;6.47;;;;;;;22.85;50.08;100728.03;5093175;28;20055;-70
2022/05/08 08:36:07;;;;;;;8.05;5.90;;;;;;;22.66;48.81;100722.75;5074621;28;20079;-72
2022/05/08 08:38:36;;;;;;;6.40;5.13;;;;;;;22.57;49.28;100724.56;5074754;28;20062;-71
2022/05/08 08:41:08;;;;;;;7.22;5.35;;;;;;;22.45;49.98;100720.41;5074326;28;20489;-70
2022/05/08 08:49:14;;;;;;;7.78;5.30;;;;;;;22.50;50.40;100733.53;5074600;28;20566;-74
2022/05/08 08:51:43;;;;;;;8.95;5.80;;;;;;;22.67;48.91;100724.47;5074645;28;20052;-69
2022/05/08 08:54:12;;;;;;;8.00;5.72;;;;;;;22.82;49.68;100732.91;5074623;28;20378;-70
2022/05/08 08:56:40;;;;;;;10.63;5.72;;;;;;;23.22;49.41;100734.19;5092769;28;20464;-69
2022/05/08 08:59:10;;;;;;;7.28;5.75;;;;;;;23.41;48.51;100726.63;5074504;28;20044;-69
2022/05/08 09:01:43;;;;;;;7.75;5.60;;;;;;;23.37;48.34;100729.84;5092776;28;20040;-68
2022/05/08 09:04:13;;;;;;;6.65;5.28;;;;;;;22.83;49.05;100724.59;5074222;28;20489;-69
2022/05/08 09:06:45;;;;;;;7.80;5.43;;;;;;;22.79;49.66;100728.66;5074771;28;20507;-69
2022/05/08 09:09:24;;;;;;;7.95;5.88;;;;;;;23.07;49.51;100725.78;5092924;28;20036;-69
2022/05/08 09:11:53;;;;;;;8.90;6.05;;;;;;;23.17;48.82;100726.53;5078086;28;20072;-70
2022/05/08 09:14:32;;;;;;;8.05;5.82;;;;;;;23.26;47.81;100720.13;5071543;28;20094;-75
2022/05/08 09:17:04;;;;;;;9.80;6.30;;;;;;;23.11;48.14;100729.88;5085460;28;20050;-74
2022/05/08 09:19:37;;;;;;;9.85;5.57;;;;;;;22.80;49.55;100719.47;5078296;28;20143;-74
2022/05/08 09:22:06;;;;;;;;;;;;;;;23.19;48.34;100727.22;5096742;28;20058;-74
2022/05/08 09:24:35;;;;;;;7.68;5.82;;;;;;;23.67;47.38;100723.88;5077843;28;19999;-75
2022/05/08 09:27:12;;;;;;;8.98;6.18;;;;;;;24.07;46.21;100715.94;5095935;28;20043;-71
2022/05/08 09:29:40;;;;;;;9.52;5.70;;;;;;;24.35;45.24;100721.97;5078205;28;20048;-71
2022/05/08 09:32:38;;;;;;;7.15;5.65;;;;;;;24.47;45.41;100710.53;5077716;28;20044;-71
2022/05/08 09:35:08;;;;;;;7.38;5.88;;;;;;;24.19;44.38;100706.41;5077157;28;20071;-71
2022/05/08 09:37:51;;;;;;;7.50;5.43;;;;;;;23.59;46.38;100709.38;5077694;28;20044;-71
2022/05/08 09:40:22;;;;;;;9.38;5.68;;;;;;;23.67;46.21;100717.56;5095956;28;20044;-71
2022/05/08 09:42:50;;;;;;;8.35;5.53;;;;;;;23.81;45.84;100708.75;5096067;28;20040;-71
2022/05/08 09:45:18;;;;;;;7.43;5.88;;;;;;;23.47;45.73;100710.66;5077397;28;20101;-71
2022/05/08 09:47:49;;;;;;;8.15;5.50;;;;;;;23.46;46.61;100709.81;5095567;28;20101;-71
2022/05/08 09:50:19;;;;;;;6.47;5.30;;;;;;;23.49;45.94;100709.47;5077448;28;20058;-71
2022/05/08 09:52:47;;;;;;;6.90;5.47;;;;;;;23.50;46.44;100705.72;5095592;28;20040;-71
2022/05/08 09:55:16;;;;;;;8.45;5.63;;;;;;;23.28;45.91;100704.47;5095222;28;20086;-71
2022/05/08 09:57:44;;;;;;;8.63;6.03;;;;;;;23.15;46.65;100706.75;5077374;28;20135;-71
2022/05/08 10:00:16;;;;;;;9.32;6.25;;;;;;;22.89;47.08;100706.81;5077138;28;20553;-71
2022/05/08 10:02:45;;;;;;;9.15;6.75;;;;;;;22.99;46.67;100702.13;5077999;28;20060;-71
2022/05/08 10:05:16;;;;;;;9.80;6.03;;;;;;;23.18;46.71;100692.00;5077041;28;20076;-71
2022/05/08 10:07:45;;;;;;;11.30;6.32;;;;;;;23.31;46.49;100700.56;5077355;28;20078;-71
2022/05/08 10:15:49;;;;;;;9.93;7.38;;;;;;;22.94;46.65;100698.16;5095088;28;20041;-71
2022/05/08 10:18:28;;;;;;;10.70;6.90;;;;;;;22.82;45.57;100686.69;5076709;28;20413;-71
2022/05/08 10:21:03;;;;;;;7.43;5.75;;;;;;;23.21;45.32;100689.81;5095179;28;20043;-71
2022/05/08 10:23:46;;;;;;;7.88;5.43;;;;;;;23.61;43.87;100685.53;5095351;28;20123;-71
2022/05/08 10:26:16;;;;;;;7.90;5.40;;;;;;;23.52;44.52;100689.22;5076538;28;20063;-71
2022/05/08 10:29:14;;;;;;;8.73;5.82;;;;;;;23.51;44.27;100682.94;5076983;28;20048;-70
2022/05/08 10:31:47;;;;;;;6.75;5.32;;;;;;;23.51;43.89;100688.38;5095016;28;20040;-70
2022/05/08 10:34:29;;;;;;;7.47;5.18;;;;;;;23.43;43.52;100686.47;5076602;28;20409;-71
2022/05/08 10:37:31;;;;;;;8.18;5.38;;;;;;;23.51;44.53;100682.09;5076545;28;20082;-71
2022/05/08 10:39:59;;;;;;;8.15;5.38;;;;;;;23.57;45.05;100685.00;5076677;28;20121;-70
2022/05/08 10:42:45;;;;;;;7.07;5.25;;;;;;;23.45;45.10;100680.00;5076632;28;20051;-70
2022/05/08 10:45:40;;;;;;;8.40;5.38;;;;;;;23.25;44.90;100685.72;5076023;28;20503;-70
2022/05/08 10:48:13;;;;;;;8.38;5.22;;;;;;;23.40;45.06;100689.53;5076291;28;20048;-70
2022/05/08 10:50:44;;;;;;;9.38;5.65;;;;;;;23.33;45.50;100683.03;5094375;28;20429;-70
2022/05/08 10:53:33;;;;;;;7.43;5.65;;;;;;;23.26;44.75;100687.44;5076170;28;20052;-70
2022/05/08 10:56:05;;;;;;;8.25;5.50;;;;;;;23.21;44.90;100681.63;5076184;28;20097;-70
2022/05/08 10:58:34;;;;;;;7.85;6.05;;;;;;;23.29;44.88;100678.09;5092782;28;20047;-73
2022/05/08 11:01:06;;;;;;;8.77;5.40;;;;;;;23.71;44.54;100678.09;5093612;28;20059;-73
2022/05/08 11:03:36;;;;;;;7.53;5.22;;;;;;;23.81;43.38;100684.22;5096577;28;20048;-73
2022/05/08 11:06:06;;;;;;;9.27;5.57;;;;;;;23.93;43.87;100669.28;5092664;28;20044;-74
2022/05/08 11:08:36;;;;;;;9.02;5.53;;;;;;;24.24;43.22;100671.34;5092733;28;20082;-74
2022/05/08 11:11:09;;;;;;;11.25;5.88;;;;;;;24.43;42.60;100670.16;5093648;28;20090;-74
2022/05/08 11:13:40;;;;;;;9.80;5.75;;;;;;;24.45;42.37;100668.97;5092842;28;20078;-73
2022/05/08 11:16:08;;;;;;;12.57;5.63;;;;;;;24.51;42.23;100662.84;5093463;28;20090;-73
2022/05/08 11:18:36;;;;;;;7.30;5.28;;;;;;;24.61;41.33;100662.66;5092671;28;20130;-73
2022/05/08 11:21:08;;;;;;;9.93;5.53;;;;;;;24.53;41.72;100660.78;5092701;28;20374;-74
2022/05/08 11:23:44;;;;;;;7.35;5.10;;;;;;;24.63;41.80;100654.28;5094154;28;20040;-72
2022/05/08 11:26:16;;;;;;;8.70;5.50;;;;;;;24.63;41.88;100646.09;5092179;28;20055;-77
2022/05/08 11:28:49;;;;;;;9.02;5.63;;;;;;;24.57;41.97;100649.50;5094067;28;20077;-75
2022/05/08 11:31:20;;;;;;;;;;;;;;;24.55;41.64;100647.81;5092492;28;20048;-80
2022/05/08 11:36:38;;;;;;;9.60;5.60;;;;;;;24.86;39.53;100638.88;5093022;28;20113;-80
2022/05/08 11:39:12;;;;;;;10.38;5.25;;;;;;;24.69;40.22;100635.34;5092120;28;20048;-83
2022/05/08 11:41:44;;;;;;;6.55;5.07;;;;;;;24.57;39.95;100638.59;5093509;28;20039;-82
2022/05/08 11:44:28;;;;;;;6.80;5.28;;;;;;;24.44;40.43;100641.88;5092147;28;20044;-81
2022/05/08 11:46:57;;;;;;;7.20;5.30;;;;;;;24.41;40.53;100634.88;5093754;28;20370;-79
2022/05/08 11:49:26;;;;;;;8.45;5.35;;;;;;;24.51;40.85;100651.03;5092307;28;20063;-80
2022/05/08 11:51:57;;;;;;;6.20;4.82;;;;;;;24.51;39.36;100635.56;5092066;28;20044;-80
2022/05/08 11:54:28;;;;;;;8.43;4.68;;;;;;;24.37;39.65;100644.44;5091698;28;20066;-80
2022/05/08 11:57:14;;;;;;;6.80;4.63;;;;;;;24.25;39.63;100638.44;5092344;28;20139;-81
2022/05/08 11:59:43;;;;;;;6.38;4.85;;;;;;;24.20;40.32;100642.69;5093133;28;20124;-81
2022/05/08 12:02:12;;;;;;;7.43;5.30;;;;;;;24.31;40.36;100636.03;5093095;28;20040;-80
2022/05/08 12:04:41;;;;;;;9.13;5.65;;;;;;;24.52;41.22;100640.00;5093397;28;20051;-80
2022/05/08 12:07:11;;;;;;;9.13;5.53;;;;;;;24.64;40.93;100634.16;5093029;28;20392;-81